createdAt,value
2023-02-03T00:01:40.449Z,86.80
2023-02-03T00:09:48.593Z,86.60
2023-02-03T00:17:54.076Z,86.10
2023-02-03T00:26:09.196Z,86.50
2023-02-03T00:34:15.218Z,86.70
2023-02-03T00:42:23.215Z,87.80
2023-02-03T00:50:28.997Z,87.30
2023-02-03T00:58:37.415Z,86.60
2023-02-03T01:06:44.314Z,85.90
2023-02-03T01:14:52.403Z,85.30
2023-02-03T01:22:57.800Z,85.40
2023-02-03T01:31:15.819Z,85.60
2023-02-03T01:39:21.697Z,84.30
2023-02-03T01:47:34.045Z,84.50
2023-02-03T01:55:43.599Z,84.10
2023-02-03T02:03:55.816Z,83.90
2023-02-03T02:12:01.191Z,83.60
2023-02-03T02:20:31.972Z,83.60
2023-02-03T02:28:59.113Z,83.70
2023-02-03T02:37:16.459Z,83.80
2023-02-03T02:45:29.303Z,83.80
2023-02-03T02:53:41.574Z,83.50
2023-02-03T03:01:48.466Z,84.00
2023-02-03T03:10:01.722Z,84.00
2023-02-03T03:18:12.730Z,83.90
2023-02-03T03:26:28.032Z,83.70
2023-02-03T03:34:34.827Z,83.70
2023-02-03T03:42:48.674Z,84.40
2023-02-03T03:50:59.187Z,83.70
2023-02-03T03:59:09.713Z,83.90
2023-02-03T04:07:16.934Z,83.90
2023-02-03T04:15:25.188Z,84.00
2023-02-03T04:23:30.709Z,84.40
2023-02-03T04:31:39.043Z,83.70
2023-02-03T04:39:44.617Z,83.60
2023-02-03T04:47:55.920Z,83.60
2023-02-03T04:56:01.552Z,83.00
2023-02-03T05:04:09.642Z,82.80
2023-02-03T05:12:15.184Z,82.50
2023-02-03T05:20:23.734Z,82.00
2023-02-03T05:28:29.288Z,81.90
2023-02-03T05:36:37.190Z,81.90
2023-02-03T05:44:42.813Z,81.60
2023-02-03T05:52:50.916Z,82.30
2023-02-03T06:00:56.380Z,82.30
2023-02-03T06:09:04.810Z,82.20
2023-02-03T06:17:11.001Z,82.00
2023-02-03T06:25:19.036Z,82.20
2023-02-03T06:33:24.735Z,81.30
2023-02-03T06:41:33.022Z,81.20
2023-02-03T06:49:38.383Z,81.80
2023-02-03T06:57:50.818Z,81.80
2023-02-03T07:05:56.217Z,81.30
2023-02-03T07:14:04.264Z,80.60
2023-02-03T07:22:09.782Z,80.90
2023-02-03T07:30:18.688Z,80.70
2023-02-03T07:38:25.190Z,81.00
2023-02-03T07:46:33.472Z,80.60
2023-02-03T07:54:38.994Z,80.00
2023-02-03T08:02:47.783Z,79.40
2023-02-03T08:10:53.175Z,77.80
2023-02-03T08:19:01.263Z,76.10
2023-02-03T08:27:06.777Z,74.60
2023-02-03T08:35:14.931Z,73.60
2023-02-03T08:43:20.302Z,73.10
2023-02-03T08:51:28.365Z,70.60
2023-02-03T08:59:36.243Z,64.50
2023-02-03T09:07:46.067Z,60.90
2023-02-03T09:15:51.555Z,59.10
2023-02-03T09:24:03.411Z,59.60
2023-02-03T09:32:11.089Z,58.40
2023-02-03T09:40:26.437Z,55.10
2023-02-03T09:48:37.702Z,56.50
2023-02-03T09:56:52.528Z,53.70
2023-02-03T10:05:03.329Z,47.60
2023-02-03T10:13:22.065Z,49.80
2023-02-03T10:21:39.091Z,50.10
2023-02-03T10:29:47.661Z,50.80
2023-02-03T10:37:56.657Z,53.00
2023-02-03T10:46:04.813Z,54.40
2023-02-03T10:54:32.116Z,55.70
2023-02-03T11:02:40.446Z,57.60
2023-02-03T11:10:46.866Z,59.20
2023-02-03T11:19:00.035Z,58.90
2023-02-03T11:27:08.329Z,61.40
2023-02-03T11:35:24.341Z,61.60
2023-02-03T11:43:30.656Z,62.30
2023-02-03T11:51:49.019Z,61.60
2023-02-03T12:00:15.035Z,62.40
2023-02-03T12:08:40.163Z,63.40
2023-02-03T12:17:23.799Z,66.10
2023-02-03T12:25:40.475Z,66.10
2023-02-03T12:33:51.615Z,64.00
2023-02-03T12:42:04.658Z,64.10
2023-02-03T12:50:17.906Z,64.90
2023-02-03T12:58:34.282Z,64.10
2023-02-03T13:06:47.436Z,64.80
2023-02-03T13:15:02.653Z,66.40
2023-02-03T13:23:11.632Z,66.20
2023-02-03T13:31:33.868Z,66.30
2023-02-03T13:39:58.903Z,67.60
2023-02-03T13:48:14.261Z,67.80
2023-02-03T13:56:24.859Z,68.00
2023-02-03T14:04:57.647Z,69.10
2023-02-03T14:13:04.530Z,69.40
2023-02-03T14:21:20.635Z,70.30
2023-02-03T14:29:32.271Z,71.70
2023-02-03T14:37:40.521Z,73.10
2023-02-03T14:46:08.593Z,73.70
2023-02-03T14:54:31.103Z,74.90
2023-02-03T15:02:37.656Z,75.30
2023-02-03T15:10:47.963Z,75.70
2023-02-03T15:19:09.053Z,75.30
2023-02-03T15:27:27.498Z,75.10
2023-02-03T15:35:36.837Z,74.80
2023-02-03T15:43:48.835Z,75.60
2023-02-03T15:51:58.958Z,75.30
2023-02-03T16:00:14.205Z,75.80
2023-02-03T16:08:43.920Z,76.60
2023-02-03T16:17:06.269Z,78.00
2023-02-03T16:25:21.863Z,78.20
2023-02-03T16:33:47.130Z,78.30
2023-02-03T16:42:04.990Z,78.40
2023-02-03T16:50:39.665Z,78.00
2023-02-03T16:58:52.197Z,78.80
2023-02-03T17:07:00.572Z,79.20
2023-02-03T17:15:13.273Z,79.40
2023-02-03T17:23:22.767Z,79.80
2023-02-03T17:31:28.619Z,80.80
2023-02-03T17:56:23.454Z,80.60
2023-02-03T18:04:31.507Z,79.80
2023-02-03T18:12:39.750Z,78.80
2023-02-03T18:20:48.704Z,78.50
2023-02-03T18:28:58.053Z,79.00
2023-02-03T18:37:04.262Z,81.00
2023-02-03T18:45:13.928Z,80.40
2023-02-03T18:53:19.731Z,80.00
2023-02-03T19:01:29.923Z,80.50
2023-02-03T19:09:35.589Z,81.80
2023-02-03T19:17:43.908Z,82.90
2023-02-03T19:25:55.392Z,83.60
2023-02-03T19:34:03.718Z,84.40
2023-02-03T19:42:09.260Z,84.70
2023-02-03T19:50:17.528Z,86.30
2023-02-03T19:58:23.661Z,86.90
2023-02-03T20:06:31.856Z,87.40
2023-02-03T20:14:37.502Z,88.40
2023-02-03T20:22:45.631Z,88.80
2023-02-03T20:30:54.309Z,89.60
2023-02-03T20:39:02.328Z,88.80
2023-02-03T20:47:11.793Z,88.80
2023-02-03T20:55:22.054Z,90.50
2023-02-03T21:03:55.480Z,90.50
2023-02-03T21:12:03.562Z,90.80
2023-02-03T21:20:24.595Z,90.80
2023-02-03T21:28:35.261Z,91.40
2023-02-03T21:36:41.570Z,92.40
2023-02-03T21:44:49.792Z,91.90
2023-02-03T21:52:55.285Z,91.60
2023-02-03T22:01:06.398Z,91.30
2023-02-03T22:09:28.885Z,90.90
2023-02-03T22:17:56.396Z,90.50
2023-02-03T22:26:03.485Z,90.30
2023-02-03T22:34:12.183Z,90.00
2023-02-03T22:42:17.845Z,89.10
2023-02-03T22:50:35.049Z,90.10
2023-02-03T22:58:41.929Z,90.00
2023-02-03T23:06:49.896Z,89.30
2023-02-03T23:14:55.318Z,88.90
2023-02-03T23:23:03.393Z,86.80
2023-02-03T23:31:09.279Z,88.80
2023-02-03T23:39:17.435Z,87.70
2023-02-03T23:47:23.066Z,86.60
2023-02-03T23:55:31.546Z,86.00
